Thatcher, Ohio
Current Conditions -  °F | °C
As of 6:54 AM on Friday 21 Nov 2014 (Local Time) from KRZT Reporting Station
Clear Clear  
Wind Chill:   Ceiling: Unl
Heat Index: 18°   Visibility: 10mi
Dew Point:   Wind: 6mph
Humidity: 68%   Direction: 280°W
Pressure: 30.43"   Gusts: NA
Location:  39.5752°N, 82.907°W
Report Text: KRZT 211154Z AUTO 28005KT 10SM CLR M08/M13 A3043 RMK AO2
Loading
Personal Weather Stations






























Interactive Weather Map New forecast layout! Learn more

10-Day Weather Forecast

Advertisements
Track Severe Weather on mobile